sensor_id;sensor_type;location;lat;lon;timestamp;P1;durP1;ratioP1;P2;durP2;ratioP2
47778;SDS011;33538;48.432;11.350;2023-07-02T00:01:50;3.72;;;2.30;;
47778;SDS011;33538;48.432;11.350;2023-07-02T00:04:18;2.67;;;2.08;;
47778;SDS011;33538;48.432;11.350;2023-07-02T00:06:45;3.40;;;2.00;;
47778;SDS011;33538;48.432;11.350;2023-07-02T00:09:13;3.28;;;1.73;;
47778;SDS011;33538;48.432;11.350;2023-07-02T00:11:41;4.95;;;2.03;;
47778;SDS011;33538;48.432;11.350;2023-07-02T00:14:10;3.65;;;2.20;;
47778;SDS011;33538;48.432;11.350;2023-07-02T00:16:37;3.95;;;2.40;;
47778;SDS011;33538;48.432;11.350;2023-07-02T00:19:05;2.72;;;2.13;;
47778;SDS011;33538;48.432;11.350;2023-07-02T00:21:33;3.78;;;1.90;;
47778;SDS011;33538;48.432;11.350;2023-07-02T00:24:00;3.05;;;2.08;;
47778;SDS011;33538;48.432;11.350;2023-07-02T00:26:27;2.65;;;1.90;;
47778;SDS011;33538;48.432;11.350;2023-07-02T00:28:54;2.58;;;1.98;;
47778;SDS011;33538;48.432;11.350;2023-07-02T00:31:22;2.83;;;1.92;;
47778;SDS011;33538;48.432;11.350;2023-07-02T00:33:50;3.00;;;1.70;;
47778;SDS011;33538;48.432;11.350;2023-07-02T00:36:17;2.00;;;1.65;;
47778;SDS011;33538;48.432;11.350;2023-07-02T00:38:45;2.05;;;1.67;;
47778;SDS011;33538;48.432;11.350;2023-07-02T00:41:13;2.00;;;1.80;;
47778;SDS011;33538;48.432;11.350;2023-07-02T00:43:40;3.22;;;1.77;;
47778;SDS011;33538;48.432;11.350;2023-07-02T00:46:07;3.75;;;1.90;;
47778;SDS011;33538;48.432;11.350;2023-07-02T00:48:34;5.13;;;2.17;;
47778;SDS011;33538;48.432;11.350;2023-07-02T00:51:01;3.30;;;1.70;;
47778;SDS011;33538;48.432;11.350;2023-07-02T00:53:27;3.75;;;2.10;;
47778;SDS011;33538;48.432;11.350;2023-07-02T00:55:56;4.22;;;1.80;;
47778;SDS011;33538;48.432;11.350;2023-07-02T00:58:22;2.28;;;1.75;;
47778;SDS011;33538;48.432;11.350;2023-07-02T01:00:49;2.80;;;2.10;;
47778;SDS011;33538;48.432;11.350;2023-07-02T01:03:16;2.95;;;1.60;;
47778;SDS011;33538;48.432;11.350;2023-07-02T01:05:43;2.40;;;1.98;;
47778;SDS011;33538;48.432;11.350;2023-07-02T01:08:10;1.60;;;1.35;;
47778;SDS011;33538;48.432;11.350;2023-07-02T01:10:37;4.18;;;1.90;;
47778;SDS011;33538;48.432;11.350;2023-07-02T01:13:06;3.75;;;2.13;;
47778;SDS011;33538;48.432;11.350;2023-07-02T01:15:38;2.38;;;1.58;;
47778;SDS011;33538;48.432;11.350;2023-07-02T01:18:06;2.65;;;1.80;;
47778;SDS011;33538;48.432;11.350;2023-07-02T01:20:35;2.55;;;1.70;;
47778;SDS011;33538;48.432;11.350;2023-07-02T01:23:03;1.83;;;1.55;;
47778;SDS011;33538;48.432;11.350;2023-07-02T01:25:30;2.33;;;1.55;;
47778;SDS011;33538;48.432;11.350;2023-07-02T01:27:57;1.77;;;1.50;;
47778;SDS011;33538;48.432;11.350;2023-07-02T01:30:24;2.20;;;1.75;;
47778;SDS011;33538;48.432;11.350;2023-07-02T01:32:51;2.90;;;1.67;;
47778;SDS011;33538;48.432;11.350;2023-07-02T01:35:18;2.65;;;1.63;;
47778;SDS011;33538;48.432;11.350;2023-07-02T01:37:46;3.95;;;1.50;;
47778;SDS011;33538;48.432;11.350;2023-07-02T01:40:13;3.08;;;1.40;;
47778;SDS011;33538;48.432;11.350;2023-07-02T01:42:40;2.47;;;1.70;;
47778;SDS011;33538;48.432;11.350;2023-07-02T01:45:07;2.08;;;1.65;;
47778;SDS011;33538;48.432;11.350;2023-07-02T01:47:34;2.35;;;1.92;;
47778;SDS011;33538;48.432;11.350;2023-07-02T01:50:03;1.77;;;1.38;;
47778;SDS011;33538;48.432;11.350;2023-07-02T01:52:30;2.15;;;1.52;;
47778;SDS011;33538;48.432;11.350;2023-07-02T01:54:59;2.10;;;1.30;;
47778;SDS011;33538;48.432;11.350;2023-07-02T01:57:26;1.50;;;1.20;;
47778;SDS011;33538;48.432;11.350;2023-07-02T01:59:52;2.95;;;1.40;;
47778;SDS011;33538;48.432;11.350;2023-07-02T02:02:19;1.50;;;0.98;;
47778;SDS011;33538;48.432;11.350;2023-07-02T02:04:46;2.45;;;1.40;;
47778;SDS011;33538;48.432;11.350;2023-07-02T02:07:13;3.08;;;1.52;;
47778;SDS011;33538;48.432;11.350;2023-07-02T02:09:40;3.58;;;1.60;;
47778;SDS011;33538;48.432;11.350;2023-07-02T02:12:08;1.40;;;1.30;;
47778;SDS011;33538;48.432;11.350;2023-07-02T02:14:35;2.88;;;1.83;;
47778;SDS011;33538;48.432;11.350;2023-07-02T02:17:02;2.28;;;1.42;;
47778;SDS011;33538;48.432;11.350;2023-07-02T02:19:29;5.35;;;1.73;;
47778;SDS011;33538;48.432;11.350;2023-07-02T02:21:56;1.98;;;1.23;;
47778;SDS011;33538;48.432;11.350;2023-07-02T02:24:23;2.85;;;1.58;;
47778;SDS011;33538;48.432;11.350;2023-07-02T02:26:49;1.92;;;1.45;;
47778;SDS011;33538;48.432;11.350;2023-07-02T02:29:17;3.25;;;2.00;;
47778;SDS011;33538;48.432;11.350;2023-07-02T02:31:44;3.35;;;1.80;;
47778;SDS011;33538;48.432;11.350;2023-07-02T02:34:11;2.90;;;1.70;;
47778;SDS011;33538;48.432;11.350;2023-07-02T02:36:38;1.88;;;1.50;;
47778;SDS011;33538;48.432;11.350;2023-07-02T02:39:05;2.55;;;1.65;;
47778;SDS011;33538;48.432;11.350;2023-07-02T02:41:31;5.20;;;1.70;;
47778;SDS011;33538;48.432;11.350;2023-07-02T02:43:58;3.15;;;2.20;;
47778;SDS011;33538;48.432;11.350;2023-07-02T02:46:26;2.78;;;1.65;;
47778;SDS011;33538;48.432;11.350;2023-07-02T02:48:53;2.55;;;1.70;;
47778;SDS011;33538;48.432;11.350;2023-07-02T02:51:20;5.90;;;1.92;;
47778;SDS011;33538;48.432;11.350;2023-07-02T02:53:47;5.90;;;2.00;;
47778;SDS011;33538;48.432;11.350;2023-07-02T02:56:13;3.95;;;1.85;;
47778;SDS011;33538;48.432;11.350;2023-07-02T02:58:40;6.32;;;1.83;;
47778;SDS011;33538;48.432;11.350;2023-07-02T03:01:07;4.05;;;2.10;;
47778;SDS011;33538;48.432;11.350;2023-07-02T03:03:35;4.57;;;2.05;;
47778;SDS011;33538;48.432;11.350;2023-07-02T03:06:03;7.97;;;1.80;;
47778;SDS011;33538;48.432;11.350;2023-07-02T03:08:30;5.38;;;1.85;;
47778;SDS011;33538;48.432;11.350;2023-07-02T03:10:56;3.83;;;1.70;;
47778;SDS011;33538;48.432;11.350;2023-07-02T03:13:23;4.60;;;1.83;;
47778;SDS011;33538;48.432;11.350;2023-07-02T03:15:50;2.90;;;1.85;;
47778;SDS011;33538;48.432;11.350;2023-07-02T03:18:17;3.75;;;2.00;;
47778;SDS011;33538;48.432;11.350;2023-07-02T03:20:45;2.22;;;1.70;;
47778;SDS011;33538;48.432;11.350;2023-07-02T03:23:12;2.28;;;1.70;;
47778;SDS011;33538;48.432;11.350;2023-07-02T03:25:39;2.03;;;1.58;;
47778;SDS011;33538;48.432;11.350;2023-07-02T03:28:06;9.55;;;2.10;;
47778;SDS011;33538;48.432;11.350;2023-07-02T03:30:32;3.03;;;1.67;;
47778;SDS011;33538;48.432;11.350;2023-07-02T03:32:59;3.30;;;1.80;;
47778;SDS011;33538;48.432;11.350;2023-07-02T03:35:26;3.20;;;1.98;;
47778;SDS011;33538;48.432;11.350;2023-07-02T03:37:54;3.47;;;1.80;;
47778;SDS011;33538;48.432;11.350;2023-07-02T03:40:21;3.88;;;1.52;;
47778;SDS011;33538;48.432;11.350;2023-07-02T03:42:48;3.72;;;2.10;;
47778;SDS011;33538;48.432;11.350;2023-07-02T03:45:15;3.70;;;1.60;;
47778;SDS011;33538;48.432;11.350;2023-07-02T03:47:41;3.80;;;1.80;;
47778;SDS011;33538;48.432;11.350;2023-07-02T03:50:09;3.53;;;2.00;;
47778;SDS011;33538;48.432;11.350;2023-07-02T03:52:35;2.67;;;1.73;;
47778;SDS011;33538;48.432;11.350;2023-07-02T03:55:04;1.58;;;1.40;;
47778;SDS011;33538;48.432;11.350;2023-07-02T03:57:32;2.63;;;1.63;;
47778;SDS011;33538;48.432;11.350;2023-07-02T03:59:58;4.85;;;1.95;;
47778;SDS011;33538;48.432;11.350;2023-07-02T04:02:25;4.28;;;1.45;;
47778;SDS011;33538;48.432;11.350;2023-07-02T04:04:52;2.60;;;1.55;;
47778;SDS011;33538;48.432;11.350;2023-07-02T04:07:19;2.22;;;1.65;;
47778;SDS011;33538;48.432;11.350;2023-07-02T04:09:46;1.60;;;1.33;;
47778;SDS011;33538;48.432;11.350;2023-07-02T04:12:14;2.50;;;1.80;;
47778;SDS011;33538;48.432;11.350;2023-07-02T04:14:41;3.83;;;2.42;;
47778;SDS011;33538;48.432;11.350;2023-07-02T04:17:07;3.08;;;1.77;;
47778;SDS011;33538;48.432;11.350;2023-07-02T04:19:34;2.72;;;1.63;;
47778;SDS011;33538;48.432;11.350;2023-07-02T04:22:01;4.40;;;1.85;;
47778;SDS011;33538;48.432;11.350;2023-07-02T04:24:28;3.85;;;1.83;;
47778;SDS011;33538;48.432;11.350;2023-07-02T04:26:55;3.28;;;1.75;;
47778;SDS011;33538;48.432;11.350;2023-07-02T04:29:43;2.50;;;1.70;;
47778;SDS011;33538;48.432;11.350;2023-07-02T04:32:10;1.92;;;1.63;;
47778;SDS011;33538;48.432;11.350;2023-07-02T04:34:37;2.70;;;1.98;;
47778;SDS011;33538;48.432;11.350;2023-07-02T04:37:04;2.78;;;1.90;;
47778;SDS011;33538;48.432;11.350;2023-07-02T04:39:31;3.75;;;2.00;;
47778;SDS011;33538;48.432;11.350;2023-07-02T04:41:58;2.28;;;1.70;;
47778;SDS011;33538;48.432;11.350;2023-07-02T04:44:24;3.05;;;2.03;;
47778;SDS011;33538;48.432;11.350;2023-07-02T04:46:53;2.72;;;1.90;;
47778;SDS011;33538;48.432;11.350;2023-07-02T04:49:19;3.53;;;1.85;;
47778;SDS011;33538;48.432;11.350;2023-07-02T04:51:46;4.40;;;1.90;;
47778;SDS011;33538;48.432;11.350;2023-07-02T04:54:13;2.90;;;1.80;;
47778;SDS011;33538;48.432;11.350;2023-07-02T04:56:40;2.63;;;1.73;;
47778;SDS011;33538;48.432;11.350;2023-07-02T04:59:06;4.30;;;1.90;;
47778;SDS011;33538;48.432;11.350;2023-07-02T05:01:33;4.95;;;2.28;;
47778;SDS011;33538;48.432;11.350;2023-07-02T05:04:01;3.42;;;1.90;;
47778;SDS011;33538;48.432;11.350;2023-07-02T05:06:28;4.32;;;2.08;;
47778;SDS011;33538;48.432;11.350;2023-07-02T05:08:55;2.47;;;2.05;;
47778;SDS011;33538;48.432;11.350;2023-07-02T05:11:22;5.10;;;1.85;;
47778;SDS011;33538;48.432;11.350;2023-07-02T05:13:49;3.20;;;1.92;;
47778;SDS011;33538;48.432;11.350;2023-07-02T05:16:16;3.17;;;1.90;;
47778;SDS011;33538;48.432;11.350;2023-07-02T05:18:43;4.55;;;2.05;;
47778;SDS011;33538;48.432;11.350;2023-07-02T05:21:11;3.63;;;1.80;;
47778;SDS011;33538;48.432;11.350;2023-07-02T05:23:38;4.80;;;2.10;;
47778;SDS011;33538;48.432;11.350;2023-07-02T05:26:05;4.95;;;2.40;;
47778;SDS011;33538;48.432;11.350;2023-07-02T05:28:31;3.10;;;1.88;;
47778;SDS011;33538;48.432;11.350;2023-07-02T05:30:58;3.20;;;2.33;;
47778;SDS011;33538;48.432;11.350;2023-07-02T05:33:25;2.33;;;1.80;;
47778;SDS011;33538;48.432;11.350;2023-07-02T05:35:52;2.22;;;2.03;;
47778;SDS011;33538;48.432;11.350;2023-07-02T05:38:21;2.95;;;1.55;;
47778;SDS011;33538;48.432;11.350;2023-07-02T05:40:47;3.60;;;1.95;;
47778;SDS011;33538;48.432;11.350;2023-07-02T05:43:15;2.55;;;1.90;;
47778;SDS011;33538;48.432;11.350;2023-07-02T05:45:42;5.43;;;2.50;;
47778;SDS011;33538;48.432;11.350;2023-07-02T05:48:08;5.32;;;2.10;;
47778;SDS011;33538;48.432;11.350;2023-07-02T05:50:35;2.88;;;1.70;;
47778;SDS011;33538;48.432;11.350;2023-07-02T05:53:02;3.10;;;2.00;;
47778;SDS011;33538;48.432;11.350;2023-07-02T05:55:30;2.70;;;1.85;;
47778;SDS011;33538;48.432;11.350;2023-07-02T05:57:57;2.45;;;1.60;;
47778;SDS011;33538;48.432;11.350;2023-07-02T06:00:24;4.30;;;1.63;;
47778;SDS011;33538;48.432;11.350;2023-07-02T06:02:50;4.82;;;1.88;;
47778;SDS011;33538;48.432;11.350;2023-07-02T06:05:17;2.80;;;1.60;;
47778;SDS011;33538;48.432;11.350;2023-07-02T06:07:44;2.83;;;1.75;;
47778;SDS011;33538;48.432;11.350;2023-07-02T06:10:11;3.55;;;1.90;;
47778;SDS011;33538;48.432;11.350;2023-07-02T06:12:39;3.80;;;2.35;;
47778;SDS011;33538;48.432;11.350;2023-07-02T06:15:07;2.65;;;1.63;;
47778;SDS011;33538;48.432;11.350;2023-07-02T06:17:34;3.33;;;1.92;;
47778;SDS011;33538;48.432;11.350;2023-07-02T06:20:02;3.15;;;1.88;;
47778;SDS011;33538;48.432;11.350;2023-07-02T06:22:30;4.20;;;2.10;;
47778;SDS011;33538;48.432;11.350;2023-07-02T06:24:57;4.82;;;2.20;;
47778;SDS011;33538;48.432;11.350;2023-07-02T06:27:23;2.22;;;1.75;;
47778;SDS011;33538;48.432;11.350;2023-07-02T06:29:52;5.65;;;2.00;;
47778;SDS011;33538;48.432;11.350;2023-07-02T06:32:18;4.97;;;2.35;;
47778;SDS011;33538;48.432;11.350;2023-07-02T06:34:45;2.80;;;1.90;;
47778;SDS011;33538;48.432;11.350;2023-07-02T06:37:12;3.10;;;1.98;;
47778;SDS011;33538;48.432;11.350;2023-07-02T06:39:39;2.15;;;1.67;;
47778;SDS011;33538;48.432;11.350;2023-07-02T06:42:05;3.53;;;2.47;;
47778;SDS011;33538;48.432;11.350;2023-07-02T06:44:32;4.78;;;1.67;;
47778;SDS011;33538;48.432;11.350;2023-07-02T06:47:00;3.00;;;1.75;;
47778;SDS011;33538;48.432;11.350;2023-07-02T06:49:27;2.78;;;1.80;;
47778;SDS011;33538;48.432;11.350;2023-07-02T06:51:54;2.55;;;2.03;;
47778;SDS011;33538;48.432;11.350;2023-07-02T06:54:21;3.17;;;1.92;;
47778;SDS011;33538;48.432;11.350;2023-07-02T06:56:48;2.97;;;1.77;;
47778;SDS011;33538;48.432;11.350;2023-07-02T06:59:18;3.28;;;2.20;;
47778;SDS011;33538;48.432;11.350;2023-07-02T07:01:45;2.78;;;2.05;;
47778;SDS011;33538;48.432;11.350;2023-07-02T07:04:13;4.22;;;2.10;;
47778;SDS011;33538;48.432;11.350;2023-07-02T07:06:40;2.97;;;2.03;;
47778;SDS011;33538;48.432;11.350;2023-07-02T07:09:07;3.22;;;2.10;;
47778;SDS011;33538;48.432;11.350;2023-07-02T07:11:34;2.92;;;2.00;;
47778;SDS011;33538;48.432;11.350;2023-07-02T07:14:01;2.97;;;2.00;;
47778;SDS011;33538;48.432;11.350;2023-07-02T07:16:28;3.80;;;2.22;;
47778;SDS011;33538;48.432;11.350;2023-07-02T07:18:55;3.92;;;2.35;;
47778;SDS011;33538;48.432;11.350;2023-07-02T07:21:23;3.63;;;2.25;;
47778;SDS011;33538;48.432;11.350;2023-07-02T07:23:50;6.57;;;2.47;;
47778;SDS011;33538;48.432;11.350;2023-07-02T07:26:16;3.88;;;2.10;;
47778;SDS011;33538;48.432;11.350;2023-07-02T07:28:43;3.92;;;2.08;;
47778;SDS011;33538;48.432;11.350;2023-07-02T07:31:10;6.82;;;2.38;;
47778;SDS011;33538;48.432;11.350;2023-07-02T07:33:37;3.17;;;2.33;;
47778;SDS011;33538;48.432;11.350;2023-07-02T07:36:04;3.78;;;2.13;;
47778;SDS011;33538;48.432;11.350;2023-07-02T07:38:32;4.05;;;1.75;;
47778;SDS011;33538;48.432;11.350;2023-07-02T07:40:59;3.58;;;2.00;;
47778;SDS011;33538;48.432;11.350;2023-07-02T07:43:25;3.08;;;1.90;;
47778;SDS011;33538;48.432;11.350;2023-07-02T07:45:52;2.50;;;1.48;;
47778;SDS011;33538;48.432;11.350;2023-07-02T07:48:19;3.47;;;2.00;;
47778;SDS011;33538;48.432;11.350;2023-07-02T07:50:46;5.28;;;2.30;;
47778;SDS011;33538;48.432;11.350;2023-07-02T07:53:14;2.88;;;1.98;;
47778;SDS011;33538;48.432;11.350;2023-07-02T07:55:42;4.03;;;2.80;;
47778;SDS011;33538;48.432;11.350;2023-07-02T07:58:09;7.35;;;3.13;;
47778;SDS011;33538;48.432;11.350;2023-07-02T08:00:36;6.40;;;3.10;;
47778;SDS011;33538;48.432;11.350;2023-07-02T08:03:02;6.45;;;3.50;;
47778;SDS011;33538;48.432;11.350;2023-07-02T08:05:30;8.00;;;4.13;;
47778;SDS011;33538;48.432;11.350;2023-07-02T08:07:56;6.00;;;2.92;;
47778;SDS011;33538;48.432;11.350;2023-07-02T08:10:23;7.72;;;3.30;;
47778;SDS011;33538;48.432;11.350;2023-07-02T08:12:52;7.15;;;3.40;;
47778;SDS011;33538;48.432;11.350;2023-07-02T08:15:18;7.78;;;3.17;;
47778;SDS011;33538;48.432;11.350;2023-07-02T08:17:45;5.95;;;3.00;;
47778;SDS011;33538;48.432;11.350;2023-07-02T08:20:12;6.13;;;2.80;;
47778;SDS011;33538;48.432;11.350;2023-07-02T08:22:39;4.10;;;2.42;;
47778;SDS011;33538;48.432;11.350;2023-07-02T08:25:06;2.78;;;1.80;;
47778;SDS011;33538;48.432;11.350;2023-07-02T08:27:34;2.83;;;1.63;;
47778;SDS011;33538;48.432;11.350;2023-07-02T08:30:02;2.33;;;1.55;;
47778;SDS011;33538;48.432;11.350;2023-07-02T08:32:30;1.98;;;1.60;;
47778;SDS011;33538;48.432;11.350;2023-07-02T08:34:57;3.03;;;1.65;;
47778;SDS011;33538;48.432;11.350;2023-07-02T08:37:23;4.15;;;1.70;;
47778;SDS011;33538;48.432;11.350;2023-07-02T08:39:50;3.03;;;1.90;;
47778;SDS011;33538;48.432;11.350;2023-07-02T08:42:17;2.20;;;1.60;;
47778;SDS011;33538;48.432;11.350;2023-07-02T08:44:45;4.82;;;2.08;;
47778;SDS011;33538;48.432;11.350;2023-07-02T08:47:14;3.10;;;1.75;;
47778;SDS011;33538;48.432;11.350;2023-07-02T08:49:41;3.03;;;1.88;;
47778;SDS011;33538;48.432;11.350;2023-07-02T08:52:08;3.50;;;2.22;;
47778;SDS011;33538;48.432;11.350;2023-07-02T08:54:35;4.63;;;2.80;;
47778;SDS011;33538;48.432;11.350;2023-07-02T08:57:03;4.40;;;2.78;;
47778;SDS011;33538;48.432;11.350;2023-07-02T08:59:30;4.68;;;2.58;;
47778;SDS011;33538;48.432;11.350;2023-07-02T09:01:57;3.33;;;2.50;;
47778;SDS011;33538;48.432;11.350;2023-07-02T09:04:25;7.00;;;3.08;;
47778;SDS011;33538;48.432;11.350;2023-07-02T09:07:02;6.03;;;2.75;;
47778;SDS011;33538;48.432;11.350;2023-07-02T09:09:30;8.38;;;3.38;;
47778;SDS011;33538;48.432;11.350;2023-07-02T09:11:57;8.18;;;3.70;;
47778;SDS011;33538;48.432;11.350;2023-07-02T09:14:25;6.97;;;3.50;;
47778;SDS011;33538;48.432;11.350;2023-07-02T09:17:05;8.05;;;3.40;;
47778;SDS011;33538;48.432;11.350;2023-07-02T09:19:34;8.05;;;3.50;;
47778;SDS011;33538;48.432;11.350;2023-07-02T09:22:02;12.10;;;4.18;;
47778;SDS011;33538;48.432;11.350;2023-07-02T09:24:30;12.35;;;4.68;;
47778;SDS011;33538;48.432;11.350;2023-07-02T09:26:58;9.82;;;4.53;;
47778;SDS011;33538;48.432;11.350;2023-07-02T09:29:27;12.93;;;4.55;;
47778;SDS011;33538;48.432;11.350;2023-07-02T09:31:55;10.32;;;4.15;;
47778;SDS011;33538;48.432;11.350;2023-07-02T09:34:26;7.88;;;4.38;;
47778;SDS011;33538;48.432;11.350;2023-07-02T09:36:55;10.30;;;4.63;;
47778;SDS011;33538;48.432;11.350;2023-07-02T09:39:25;8.95;;;4.30;;
47778;SDS011;33538;48.432;11.350;2023-07-02T09:41:53;9.10;;;4.45;;
47778;SDS011;33538;48.432;11.350;2023-07-02T09:44:21;9.70;;;5.00;;
47778;SDS011;33538;48.432;11.350;2023-07-02T09:46:53;8.10;;;4.55;;
47778;SDS011;33538;48.432;11.350;2023-07-02T09:49:24;9.93;;;5.17;;
47778;SDS011;33538;48.432;11.350;2023-07-02T09:51:52;11.02;;;4.65;;
47778;SDS011;33538;48.432;11.350;2023-07-02T09:54:21;9.43;;;4.93;;
47778;SDS011;33538;48.432;11.350;2023-07-02T09:56:48;10.32;;;5.45;;
47778;SDS011;33538;48.432;11.350;2023-07-02T09:59:15;11.85;;;5.13;;
47778;SDS011;33538;48.432;11.350;2023-07-02T10:01:42;15.20;;;5.40;;
47778;SDS011;33538;48.432;11.350;2023-07-02T10:04:12;12.43;;;5.60;;
47778;SDS011;33538;48.432;11.350;2023-07-02T10:06:45;14.40;;;5.45;;
47778;SDS011;33538;48.432;11.350;2023-07-02T10:11:41;13.02;;;4.95;;
47778;SDS011;33538;48.432;11.350;2023-07-02T10:14:08;11.90;;;4.97;;
47778;SDS011;33538;48.432;11.350;2023-07-02T10:16:47;10.50;;;5.53;;
47778;SDS011;33538;48.432;11.350;2023-07-02T10:19:15;12.40;;;4.95;;
47778;SDS011;33538;48.432;11.350;2023-07-02T10:21:42;9.15;;;5.18;;
47778;SDS011;33538;48.432;11.350;2023-07-02T10:24:10;9.63;;;5.60;;
47778;SDS011;33538;48.432;11.350;2023-07-02T10:26:37;12.85;;;5.80;;
47778;SDS011;33538;48.432;11.350;2023-07-02T10:29:06;11.43;;;5.65;;
47778;SDS011;33538;48.432;11.350;2023-07-02T10:31:32;10.00;;;5.10;;
47778;SDS011;33538;48.432;11.350;2023-07-02T10:33:59;12.68;;;5.25;;
47778;SDS011;33538;48.432;11.350;2023-07-02T10:36:26;11.48;;;5.63;;
47778;SDS011;33538;48.432;11.350;2023-07-02T10:38:53;9.95;;;4.97;;
47778;SDS011;33538;48.432;11.350;2023-07-02T10:41:27;12.38;;;5.38;;
47778;SDS011;33538;48.432;11.350;2023-07-02T10:44:05;10.30;;;5.03;;
47778;SDS011;33538;48.432;11.350;2023-07-02T10:46:33;11.00;;;5.57;;
47778;SDS011;33538;48.432;11.350;2023-07-02T10:49:00;11.88;;;5.72;;
47778;SDS011;33538;48.432;11.350;2023-07-02T10:51:27;11.63;;;5.55;;
47778;SDS011;33538;48.432;11.350;2023-07-02T10:53:56;8.40;;;4.82;;
47778;SDS011;33538;48.432;11.350;2023-07-02T10:56:24;9.55;;;5.05;;
47778;SDS011;33538;48.432;11.350;2023-07-02T10:58:51;10.20;;;5.07;;
47778;SDS011;33538;48.432;11.350;2023-07-02T11:01:23;11.98;;;5.40;;
47778;SDS011;33538;48.432;11.350;2023-07-02T11:03:57;13.30;;;4.55;;
47778;SDS011;33538;48.432;11.350;2023-07-02T11:06:25;10.85;;;4.85;;
47778;SDS011;33538;48.432;11.350;2023-07-02T11:08:53;10.95;;;5.18;;
47778;SDS011;33538;48.432;11.350;2023-07-02T11:11:20;11.25;;;4.78;;
47778;SDS011;33538;48.432;11.350;2023-07-02T11:13:48;9.75;;;4.70;;
47778;SDS011;33538;48.432;11.350;2023-07-02T11:16:23;12.32;;;5.13;;
47778;SDS011;33538;48.432;11.350;2023-07-02T11:18:52;12.50;;;5.03;;
47778;SDS011;33538;48.432;11.350;2023-07-02T11:21:19;12.25;;;4.90;;
47778;SDS011;33538;48.432;11.350;2023-07-02T11:23:46;9.75;;;4.47;;
47778;SDS011;33538;48.432;11.350;2023-07-02T11:26:12;8.98;;;4.65;;
47778;SDS011;33538;48.432;11.350;2023-07-02T11:28:47;8.13;;;4.57;;
47778;SDS011;33538;48.432;11.350;2023-07-02T11:31:25;7.80;;;4.18;;
47778;SDS011;33538;48.432;11.350;2023-07-02T11:33:52;7.00;;;4.72;;
47778;SDS011;33538;48.432;11.350;2023-07-02T11:36:19;7.47;;;4.18;;
47778;SDS011;33538;48.432;11.350;2023-07-02T11:38:48;8.65;;;4.50;;
47778;SDS011;33538;48.432;11.350;2023-07-02T11:41:15;9.18;;;4.20;;
47778;SDS011;33538;48.432;11.350;2023-07-02T11:43:46;8.02;;;4.20;;
47778;SDS011;33538;48.432;11.350;2023-07-02T11:46:13;6.40;;;3.90;;
47778;SDS011;33538;48.432;11.350;2023-07-02T11:48:41;8.80;;;4.43;;
47778;SDS011;33538;48.432;11.350;2023-07-02T11:51:08;9.05;;;4.25;;
47778;SDS011;33538;48.432;11.350;2023-07-02T11:53:35;9.73;;;4.35;;
47778;SDS011;33538;48.432;11.350;2023-07-02T11:56:02;7.10;;;3.75;;
47778;SDS011;33538;48.432;11.350;2023-07-02T11:58:29;8.05;;;4.57;;
47778;SDS011;33538;48.432;11.350;2023-07-02T12:00:55;9.30;;;3.67;;
47778;SDS011;33538;48.432;11.350;2023-07-02T12:03:22;7.43;;;3.80;;
47778;SDS011;33538;48.432;11.350;2023-07-02T12:05:50;7.00;;;4.05;;
47778;SDS011;33538;48.432;11.350;2023-07-02T12:08:17;8.65;;;3.80;;
47778;SDS011;33538;48.432;11.350;2023-07-02T12:10:44;9.13;;;3.80;;
47778;SDS011;33538;48.432;11.350;2023-07-02T12:13:11;7.97;;;4.13;;
47778;SDS011;33538;48.432;11.350;2023-07-02T12:15:38;9.38;;;4.40;;
47778;SDS011;33538;48.432;11.350;2023-07-02T12:18:05;8.85;;;4.40;;
47778;SDS011;33538;48.432;11.350;2023-07-02T12:20:32;14.23;;;4.75;;
47778;SDS011;33538;48.432;11.350;2023-07-02T12:23:00;8.90;;;4.22;;
47778;SDS011;33538;48.432;11.350;2023-07-02T12:25:27;8.18;;;4.50;;
47778;SDS011;33538;48.432;11.350;2023-07-02T12:27:54;9.43;;;4.55;;
47778;SDS011;33538;48.432;11.350;2023-07-02T12:30:21;9.15;;;4.55;;
47778;SDS011;33538;48.432;11.350;2023-07-02T12:32:48;10.38;;;5.25;;
47778;SDS011;33538;48.432;11.350;2023-07-02T12:35:15;10.57;;;4.88;;
47778;SDS011;33538;48.432;11.350;2023-07-02T12:37:45;8.90;;;4.53;;
47778;SDS011;33538;48.432;11.350;2023-07-02T12:40:14;9.18;;;4.47;;
47778;SDS011;33538;48.432;11.350;2023-07-02T12:42:41;8.48;;;4.72;;
47778;SDS011;33538;48.432;11.350;2023-07-02T12:45:09;9.20;;;4.88;;
47778;SDS011;33538;48.432;11.350;2023-07-02T12:47:37;11.65;;;6.32;;
47778;SDS011;33538;48.432;11.350;2023-07-02T12:50:05;14.60;;;6.28;;
47778;SDS011;33538;48.432;11.350;2023-07-02T12:52:33;12.32;;;6.40;;
47778;SDS011;33538;48.432;11.350;2023-07-02T12:54:59;10.23;;;6.20;;
47778;SDS011;33538;48.432;11.350;2023-07-02T12:57:28;12.30;;;6.40;;
47778;SDS011;33538;48.432;11.350;2023-07-02T12:59:55;10.57;;;6.15;;
47778;SDS011;33538;48.432;11.350;2023-07-02T13:02:23;15.57;;;7.07;;
47778;SDS011;33538;48.432;11.350;2023-07-02T13:04:50;13.15;;;6.43;;
47778;SDS011;33538;48.432;11.350;2023-07-02T13:07:17;13.30;;;6.72;;
47778;SDS011;33538;48.432;11.350;2023-07-02T13:09:44;13.55;;;6.60;;
47778;SDS011;33538;48.432;11.350;2023-07-02T13:12:11;15.90;;;7.15;;
47778;SDS011;33538;48.432;11.350;2023-07-02T13:14:39;16.75;;;8.63;;
47778;SDS011;33538;48.432;11.350;2023-07-02T13:17:06;15.38;;;7.50;;
47778;SDS011;33538;48.432;11.350;2023-07-02T13:19:32;12.15;;;6.68;;
47778;SDS011;33538;48.432;11.350;2023-07-02T13:22:00;11.75;;;6.55;;
47778;SDS011;33538;48.432;11.350;2023-07-02T13:24:28;14.15;;;6.78;;
47778;SDS011;33538;48.432;11.350;2023-07-02T13:26:59;14.75;;;7.45;;
47778;SDS011;33538;48.432;11.350;2023-07-02T13:29:28;15.60;;;7.47;;
47778;SDS011;33538;48.432;11.350;2023-07-02T13:31:56;16.50;;;7.07;;
47778;SDS011;33538;48.432;11.350;2023-07-02T13:34:23;15.57;;;6.63;;
47778;SDS011;33538;48.432;11.350;2023-07-02T13:36:49;14.95;;;6.75;;
47778;SDS011;33538;48.432;11.350;2023-07-02T13:39:16;11.95;;;6.18;;
47778;SDS011;33538;48.432;11.350;2023-07-02T13:41:43;16.30;;;5.93;;
47778;SDS011;33538;48.432;11.350;2023-07-02T13:44:10;15.95;;;6.80;;
47778;SDS011;33538;48.432;11.350;2023-07-02T13:46:37;11.73;;;6.80;;
47778;SDS011;33538;48.432;11.350;2023-07-02T13:49:05;13.75;;;6.60;;
47778;SDS011;33538;48.432;11.350;2023-07-02T13:51:32;15.75;;;7.18;;
47778;SDS011;33538;48.432;11.350;2023-07-02T13:54:02;12.23;;;6.30;;
47778;SDS011;33538;48.432;11.350;2023-07-02T13:56:29;14.48;;;6.80;;
47778;SDS011;33538;48.432;11.350;2023-07-02T13:59:04;13.07;;;6.82;;
47778;SDS011;33538;48.432;11.350;2023-07-02T14:01:31;12.50;;;6.30;;
47778;SDS011;33538;48.432;11.350;2023-07-02T14:03:59;15.30;;;6.53;;
47778;SDS011;33538;48.432;11.350;2023-07-02T14:06:26;11.48;;;6.45;;
47778;SDS011;33538;48.432;11.350;2023-07-02T14:08:53;14.05;;;6.88;;
47778;SDS011;33538;48.432;11.350;2023-07-02T14:11:20;13.13;;;7.38;;
47778;SDS011;33538;48.432;11.350;2023-07-02T14:13:48;12.38;;;7.53;;
47778;SDS011;33538;48.432;11.350;2023-07-02T14:16:16;18.20;;;7.78;;
47778;SDS011;33538;48.432;11.350;2023-07-02T14:18:43;15.18;;;7.47;;
47778;SDS011;33538;48.432;11.350;2023-07-02T14:21:10;12.20;;;7.55;;
47778;SDS011;33538;48.432;11.350;2023-07-02T14:23:36;21.27;;;8.82;;
47778;SDS011;33538;48.432;11.350;2023-07-02T14:26:03;14.90;;;8.27;;
47778;SDS011;33538;48.432;11.350;2023-07-02T14:28:30;16.80;;;7.82;;
47778;SDS011;33538;48.432;11.350;2023-07-02T14:30:58;16.83;;;8.15;;
47778;SDS011;33538;48.432;11.350;2023-07-02T14:33:28;16.23;;;7.72;;
47778;SDS011;33538;48.432;11.350;2023-07-02T14:35:56;15.77;;;8.75;;